sensor_id;sensor_type;location;lat;lon;timestamp;pressure;altitude;pressure_sealevel;temperature;humidity
49947;BME280;35839;48.662;13.300;2024-03-02T05:00:50;96443.28;;;7.25;100.00
49947;BME280;35839;48.662;13.300;2024-03-02T05:03:15;96421.53;;;7.34;100.00
49947;BME280;35839;48.662;13.300;2024-03-02T05:05:40;96414.25;;;7.11;100.00
49947;BME280;35839;48.662;13.300;2024-03-02T05:08:06;96431.91;;;7.26;100.00
49947;BME280;35839;48.662;13.300;2024-03-02T05:10:31;96412.75;;;7.09;100.00
49947;BME280;35839;48.662;13.300;2024-03-02T05:12:57;96434.81;;;7.49;100.00
49947;BME280;35839;48.662;13.300;2024-03-02T05:15:24;96411.63;;;7.37;100.00
49947;BME280;35839;48.662;13.300;2024-03-02T05:17:50;96392.09;;;7.15;100.00
49947;BME280;35839;48.662;13.300;2024-03-02T05:20:15;96442.28;;;7.44;100.00
49947;BME280;35839;48.662;13.300;2024-03-02T05:22:41;96418.06;;;7.25;100.00
49947;BME280;35839;48.662;13.300;2024-03-02T05:25:07;96414.34;;;7.28;100.00
49947;BME280;35839;48.662;13.300;2024-03-02T05:27:32;96414.59;;;7.43;100.00
49947;BME280;35839;48.662;13.300;2024-03-02T05:29:58;96457.25;;;7.76;100.00
49947;BME280;35839;48.662;13.300;2024-03-02T05:32:27;96413.53;;;7.62;100.00
49947;BME280;35839;48.662;13.300;2024-03-02T05:34:52;96410.97;;;7.35;100.00
49947;BME280;35839;48.662;13.300;2024-03-02T05:37:18;96404.97;;;7.43;100.00
49947;BME280;35839;48.662;13.300;2024-03-02T05:39:46;96416.72;;;7.47;100.00
49947;BME280;35839;48.662;13.300;2024-03-02T05:42:11;96400.09;;;7.40;100.00
49947;BME280;35839;48.662;13.300;2024-03-02T05:44:37;96416.72;;;7.47;100.00
49947;BME280;35839;48.662;13.300;2024-03-02T05:47:02;96414.72;;;7.41;100.00
49947;BME280;35839;48.662;13.300;2024-03-02T05:49:29;96440.25;;;7.64;100.00
49947;BME280;35839;48.662;13.300;2024-03-02T05:51:54;96427.63;;;7.77;100.00
49947;BME280;35839;48.662;13.300;2024-03-02T05:54:20;96412.88;;;7.25;100.00
49947;BME280;35839;48.662;13.300;2024-03-02T05:56:45;96425.59;;;7.36;100.00
49947;BME280;35839;48.662;13.300;2024-03-02T05:59:52;96475.13;;;7.63;100.00
49947;BME280;35839;48.662;13.300;2024-03-02T06:02:17;96469.44;;;7.67;100.00
49947;BME280;35839;48.662;13.300;2024-03-02T06:04:42;96478.56;;;7.71;100.00
49947;BME280;35839;48.662;13.300;2024-03-02T06:07:08;96470.81;;;7.53;100.00
49947;BME280;35839;48.662;13.300;2024-03-02T06:09:33;96477.09;;;7.69;100.00
49947;BME280;35839;48.662;13.300;2024-03-02T06:11:58;96473.78;;;7.58;100.00
49947;BME280;35839;48.662;13.300;2024-03-02T06:14:24;96450.94;;;7.52;100.00
49947;BME280;35839;48.662;13.300;2024-03-02T06:16:52;96493.03;;;7.66;100.00
49947;BME280;35839;48.662;13.300;2024-03-02T06:19:17;96418.53;;;7.21;100.00
49947;BME280;35839;48.662;13.300;2024-03-02T06:21:43;96442.34;;;7.34;100.00
49947;BME280;35839;48.662;13.300;2024-03-02T06:24:08;96498.75;;;7.43;100.00
49947;BME280;35839;48.662;13.300;2024-03-02T06:26:43;96469.13;;;7.44;100.00
49947;BME280;35839;48.662;13.300;2024-03-02T06:29:14;96456.84;;;7.89;100.00
49947;BME280;35839;48.662;13.300;2024-03-02T06:31:39;96496.88;;;8.14;100.00
49947;BME280;35839;48.662;13.300;2024-03-02T06:34:05;96501.38;;;8.03;100.00
49947;BME280;35839;48.662;13.300;2024-03-02T06:36:31;96455.19;;;7.53;100.00
49947;BME280;35839;48.662;13.300;2024-03-02T06:38:56;96496.31;;;7.68;100.00
49947;BME280;35839;48.662;13.300;2024-03-02T06:41:24;96383.34;;;7.16;100.00
49947;BME280;35839;48.662;13.300;2024-03-02T06:43:57;96400.03;;;7.32;100.00
49947;BME280;35839;48.662;13.300;2024-03-02T06:46:25;96458.19;;;7.67;100.00
49947;BME280;35839;48.662;13.300;2024-03-02T06:48:50;96423.06;;;7.45;100.00
49947;BME280;35839;48.662;13.300;2024-03-02T06:51:19;96453.41;;;7.54;100.00
49947;BME280;35839;48.662;13.300;2024-03-02T06:53:47;96507.31;;;7.53;100.00
49947;BME280;35839;48.662;13.300;2024-03-02T06:56:13;96453.28;;;7.11;100.00
49947;BME280;35839;48.662;13.300;2024-03-02T06:58:41;96436.13;;;7.27;100.00
49947;BME280;35839;48.662;13.300;2024-03-02T07:01:10;96510.50;;;7.73;100.00
49947;BME280;35839;48.662;13.300;2024-03-02T07:03:39;96512.81;;;8.02;100.00
49947;BME280;35839;48.662;13.300;2024-03-02T07:06:05;96462.13;;;7.71;100.00
49947;BME280;35839;48.662;13.300;2024-03-02T07:08:33;96509.47;;;7.92;100.00
49947;BME280;35839;48.662;13.300;2024-03-02T07:10:59;96502.34;;;7.68;100.00
49947;BME280;35839;48.662;13.300;2024-03-02T07:13:24;96458.59;;;7.28;100.00
49947;BME280;35839;48.662;13.300;2024-03-02T07:15:49;96528.25;;;7.70;100.00
49947;BME280;35839;48.662;13.300;2024-03-02T07:18:35;96482.16;;;7.70;100.00
49947;BME280;35839;48.662;13.300;2024-03-02T07:21:06;96535.34;;;8.12;100.00
49947;BME280;35839;48.662;13.300;2024-03-02T07:23:34;96485.28;;;7.74;100.00
49947;BME280;35839;48.662;13.300;2024-03-02T07:26:09;96461.31;;;7.44;100.00
49947;BME280;35839;48.662;13.300;2024-03-02T07:28:34;96478.22;;;7.40;100.00
49947;BME280;35839;48.662;13.300;2024-03-02T07:31:06;96518.06;;;7.32;100.00
49947;BME280;35839;48.662;13.300;2024-03-02T07:33:31;96525.09;;;7.40;100.00
49947;BME280;35839;48.662;13.300;2024-03-02T07:35:58;96570.19;;;7.58;100.00
49947;BME280;35839;48.662;13.300;2024-03-02T07:38:34;96476.19;;;6.90;100.00
49947;BME280;35839;48.662;13.300;2024-03-02T07:41:00;96523.28;;;7.58;100.00
49947;BME280;35839;48.662;13.300;2024-03-02T07:43:29;96531.66;;;7.44;100.00
49947;BME280;35839;48.662;13.300;2024-03-02T07:45:54;96562.53;;;7.83;100.00
49947;BME280;35839;48.662;13.300;2024-03-02T07:48:23;96577.97;;;8.02;100.00
49947;BME280;35839;48.662;13.300;2024-03-02T07:50:49;96586.28;;;8.06;100.00
49947;BME280;35839;48.662;13.300;2024-03-02T07:53:14;96590.25;;;8.10;100.00
49947;BME280;35839;48.662;13.300;2024-03-02T07:55:43;96536.53;;;7.91;100.00
49947;BME280;35839;48.662;13.300;2024-03-02T07:58:08;96592.78;;;8.28;100.00
49947;BME280;35839;48.662;13.300;2024-03-02T08:00:38;96577.34;;;8.35;100.00
49947;BME280;35839;48.662;13.300;2024-03-02T08:03:10;96545.69;;;7.95;100.00
49947;BME280;35839;48.662;13.300;2024-03-02T08:05:38;96510.28;;;7.67;100.00
49947;BME280;35839;48.662;13.300;2024-03-02T08:08:04;96604.66;;;8.22;100.00
49947;BME280;35839;48.662;13.300;2024-03-02T08:10:30;96556.06;;;8.21;100.00
49947;BME280;35839;48.662;13.300;2024-03-02T08:12:59;96512.88;;;7.58;100.00
49947;BME280;35839;48.662;13.300;2024-03-02T08:15:24;96528.78;;;8.08;100.00
49947;BME280;35839;48.662;13.300;2024-03-02T08:17:56;96546.69;;;8.02;100.00
49947;BME280;35839;48.662;13.300;2024-03-02T08:20:21;96516.81;;;8.23;100.00
49947;BME280;35839;48.662;13.300;2024-03-02T08:22:49;96554.84;;;8.68;100.00
49947;BME280;35839;48.662;13.300;2024-03-02T08:25:19;96568.38;;;8.72;100.00
49947;BME280;35839;48.662;13.300;2024-03-02T08:27:47;96527.53;;;8.20;100.00
49947;BME280;35839;48.662;13.300;2024-03-02T08:30:13;96563.38;;;8.95;100.00
49947;BME280;35839;48.662;13.300;2024-03-02T08:32:38;96502.13;;;8.56;100.00
49947;BME280;35839;48.662;13.300;2024-03-02T08:35:04;96555.34;;;8.37;100.00
49947;BME280;35839;48.662;13.300;2024-03-02T08:37:33;96577.50;;;8.68;100.00
49947;BME280;35839;48.662;13.300;2024-03-02T08:39:58;96599.47;;;8.99;100.00
49947;BME280;35839;48.662;13.300;2024-03-02T08:42:24;96593.81;;;9.28;100.00
49947;BME280;35839;48.662;13.300;2024-03-02T08:44:49;96587.31;;;9.49;100.00
49947;BME280;35839;48.662;13.300;2024-03-02T08:47:15;96552.03;;;9.28;100.00
49947;BME280;35839;48.662;13.300;2024-03-02T08:49:43;96588.78;;;9.52;100.00
49947;BME280;35839;48.662;13.300;2024-03-02T08:52:23;96546.78;;;9.69;100.00
49947;BME280;35839;48.662;13.300;2024-03-02T08:54:59;96506.28;;;9.08;100.00
49947;BME280;35839;48.662;13.300;2024-03-02T09:01:17;96581.22;;;10.06;100.00
49947;BME280;35839;48.662;13.300;2024-03-02T09:03:43;96581.03;;;10.24;100.00
49947;BME280;35839;48.662;13.300;2024-03-02T09:06:10;96575.69;;;10.01;100.00
49947;BME280;35839;48.662;13.300;2024-03-02T09:08:35;96576.34;;;9.29;100.00
49947;BME280;35839;48.662;13.300;2024-03-02T09:11:03;96582.81;;;9.00;100.00
49947;BME280;35839;48.662;13.300;2024-03-02T09:13:29;96572.59;;;9.23;100.00
49947;BME280;35839;48.662;13.300;2024-03-02T09:15:54;96567.34;;;9.15;100.00
49947;BME280;35839;48.662;13.300;2024-03-02T09:18:20;96567.97;;;10.16;100.00
49947;BME280;35839;48.662;13.300;2024-03-02T09:20:45;96575.03;;;9.82;100.00
49947;BME280;35839;48.662;13.300;2024-03-02T09:23:11;96569.00;;;9.57;100.00
49947;BME280;35839;48.662;13.300;2024-03-02T09:25:36;96567.03;;;9.76;100.00
49947;BME280;35839;48.662;13.300;2024-03-02T09:28:02;96565.91;;;9.45;100.00
49947;BME280;35839;48.662;13.300;2024-03-02T09:30:28;96570.63;;;9.09;100.00
49947;BME280;35839;48.662;13.300;2024-03-02T09:32:53;96560.31;;;9.16;100.00
49947;BME280;35839;48.662;13.300;2024-03-02T09:35:19;96561.91;;;8.84;100.00
49947;BME280;35839;48.662;13.300;2024-03-02T09:37:45;96562.03;;;8.74;100.00
49947;BME280;35839;48.662;13.300;2024-03-02T09:40:14;96542.00;;;8.91;100.00
49947;BME280;35839;48.662;13.300;2024-03-02T09:42:42;96561.28;;;8.98;100.00
49947;BME280;35839;48.662;13.300;2024-03-02T09:45:09;96547.28;;;9.40;100.00
49947;BME280;35839;48.662;13.300;2024-03-02T09:47:34;96555.63;;;9.36;100.00
49947;BME280;35839;48.662;13.300;2024-03-02T09:50:00;96547.41;;;9.88;100.00
49947;BME280;35839;48.662;13.300;2024-03-02T09:52:25;96550.03;;;9.71;100.00
49947;BME280;35839;48.662;13.300;2024-03-02T09:54:51;96558.69;;;9.97;100.00
49947;BME280;35839;48.662;13.300;2024-03-02T09:57:16;96559.22;;;9.51;100.00
49947;BME280;35839;48.662;13.300;2024-03-02T09:59:42;96551.50;;;9.08;100.00
49947;BME280;35839;48.662;13.300;2024-03-02T10:02:07;96563.44;;;9.44;100.00
49947;BME280;35839;48.662;13.300;2024-03-02T10:04:33;96564.09;;;9.79;100.00
49947;BME280;35839;48.662;13.300;2024-03-02T10:07:17;96556.88;;;10.05;100.00
49947;BME280;35839;48.662;13.300;2024-03-02T10:09:45;96551.44;;;10.31;100.00
49947;BME280;35839;48.662;13.300;2024-03-02T10:12:12;96534.19;;;9.65;100.00
49947;BME280;35839;48.662;13.300;2024-03-02T10:14:38;96550.63;;;10.15;100.00
49947;BME280;35839;48.662;13.300;2024-03-02T10:17:08;96545.53;;;10.29;100.00
49947;BME280;35839;48.662;13.300;2024-03-02T10:19:35;96545.72;;;10.11;100.00
49947;BME280;35839;48.662;13.300;2024-03-02T10:22:05;96540.09;;;9.75;100.00
49947;BME280;35839;48.662;13.300;2024-03-02T10:24:36;96530.13;;;9.62;100.00
49947;BME280;35839;48.662;13.300;2024-03-02T10:27:16;96545.06;;;10.18;100.00
49947;BME280;35839;48.662;13.300;2024-03-02T10:29:42;96536.91;;;10.12;100.00
49947;BME280;35839;48.662;13.300;2024-03-02T10:32:11;96543.44;;;10.64;100.00
49947;BME280;35839;48.662;13.300;2024-03-02T10:34:39;96542.78;;;10.31;100.00
49947;BME280;35839;48.662;13.300;2024-03-02T10:37:05;96535.34;;;9.87;100.00
49947;BME280;35839;48.662;13.300;2024-03-02T10:39:32;96531.69;;;10.04;100.00
49947;BME280;35839;48.662;13.300;2024-03-02T10:42:02;96524.28;;;10.95;100.00
49947;BME280;35839;48.662;13.300;2024-03-02T10:44:28;96526.47;;;10.91;100.00
49947;BME280;35839;48.662;13.300;2024-03-02T10:46:55;96518.88;;;10.96;100.00
49947;BME280;35839;48.662;13.300;2024-03-02T10:49:23;96514.00;;;10.93;100.00
49947;BME280;35839;48.662;13.300;2024-03-02T10:51:49;96509.22;;;11.20;100.00
49947;BME280;35839;48.662;13.300;2024-03-02T10:54:14;96504.22;;;10.87;100.00
49947;BME280;35839;48.662;13.300;2024-03-02T10:56:41;96504.56;;;11.30;100.00
49947;BME280;35839;48.662;13.300;2024-03-02T10:59:21;96494.56;;;11.11;100.00
49947;BME280;35839;48.662;13.300;2024-03-02T11:01:50;96498.56;;;11.45;100.00
49947;BME280;35839;48.662;13.300;2024-03-02T11:04:18;96502.66;;;11.62;100.00
49947;BME280;35839;48.662;13.300;2024-03-02T11:06:48;96490.72;;;11.45;100.00
49947;BME280;35839;48.662;13.300;2024-03-02T11:09:14;96491.47;;;11.68;100.00
49947;BME280;35839;48.662;13.300;2024-03-02T11:11:43;96485.66;;;11.58;100.00
49947;BME280;35839;48.662;13.300;2024-03-02T11:14:14;96482.34;;;11.79;100.00
49947;BME280;35839;48.662;13.300;2024-03-02T11:16:42;96490.09;;;11.57;100.00
49947;BME280;35839;48.662;13.300;2024-03-02T11:19:12;96485.63;;;11.43;100.00
49947;BME280;35839;48.662;13.300;2024-03-02T11:21:38;96474.88;;;11.38;100.00
49947;BME280;35839;48.662;13.300;2024-03-02T11:26:51;96462.06;;;11.58;100.00
49947;BME280;35839;48.662;13.300;2024-03-02T11:32:02;96452.03;;;11.76;100.00
49947;BME280;35839;48.662;13.300;2024-03-02T11:34:35;96467.06;;;11.07;100.00
49947;BME280;35839;48.662;13.300;2024-03-02T11:37:02;96456.44;;;11.46;100.00
49947;BME280;35839;48.662;13.300;2024-03-02T11:39:28;96453.25;;;10.75;100.00
49947;BME280;35839;48.662;13.300;2024-03-02T11:41:55;96444.41;;;11.14;100.00
49947;BME280;35839;48.662;13.300;2024-03-02T11:44:26;96436.63;;;11.96;100.00
49947;BME280;35839;48.662;13.300;2024-03-02T11:47:01;96428.34;;;12.14;100.00
49947;BME280;35839;48.662;13.300;2024-03-02T11:52:05;96425.00;;;11.76;100.00
49947;BME280;35839;48.662;13.300;2024-03-02T11:54:32;96421.56;;;12.20;100.00
49947;BME280;35839;48.662;13.300;2024-03-02T11:57:01;96415.50;;;12.05;100.00
49947;BME280;35839;48.662;13.300;2024-03-02T11:59:28;96406.84;;;11.89;100.00
49947;BME280;35839;48.662;13.300;2024-03-02T12:01:54;96403.38;;;12.18;100.00
49947;BME280;35839;48.662;13.300;2024-03-02T12:04:21;96400.44;;;11.92;100.00
49947;BME280;35839;48.662;13.300;2024-03-02T12:06:54;96399.84;;;12.26;100.00
49947;BME280;35839;48.662;13.300;2024-03-02T12:09:20;96401.31;;;11.99;100.00
49947;BME280;35839;48.662;13.300;2024-03-02T12:11:46;96381.66;;;12.25;100.00
49947;BME280;35839;48.662;13.300;2024-03-02T12:14:12;96394.72;;;12.39;100.00
49947;BME280;35839;48.662;13.300;2024-03-02T12:16:46;96387.13;;;12.88;100.00
49947;BME280;35839;48.662;13.300;2024-03-02T12:19:11;96384.25;;;12.82;100.00
49947;BME280;35839;48.662;13.300;2024-03-02T12:21:37;96384.38;;;12.74;100.00
49947;BME280;35839;48.662;13.300;2024-03-02T12:24:06;96382.78;;;11.71;100.00
49947;BME280;35839;48.662;13.300;2024-03-02T12:26:31;96380.34;;;13.00;100.00
49947;BME280;35839;48.662;13.300;2024-03-02T12:28:57;96374.53;;;13.04;100.00
49947;BME280;35839;48.662;13.300;2024-03-02T12:31:23;96374.81;;;12.45;100.00
49947;BME280;35839;48.662;13.300;2024-03-02T12:33:49;96369.72;;;13.08;100.00
49947;BME280;35839;48.662;13.300;2024-03-02T12:36:14;96371.75;;;13.34;100.00
49947;BME280;35839;48.662;13.300;2024-03-02T12:38:43;96366.03;;;12.81;100.00
49947;BME280;35839;48.662;13.300;2024-03-02T12:41:09;96368.16;;;12.92;100.00
49947;BME280;35839;48.662;13.300;2024-03-02T12:43:34;96361.53;;;12.96;100.00
49947;BME280;35839;48.662;13.300;2024-03-02T12:46:00;96363.03;;;13.05;100.00
49947;BME280;35839;48.662;13.300;2024-03-02T12:48:25;96362.75;;;13.00;100.00
49947;BME280;35839;48.662;13.300;2024-03-02T12:50:51;96360.06;;;13.43;100.00
49947;BME280;35839;48.662;13.300;2024-03-02T12:53:16;96351.22;;;13.23;100.00
49947;BME280;35839;48.662;13.300;2024-03-02T12:55:42;96351.59;;;13.20;100.00
49947;BME280;35839;48.662;13.300;2024-03-02T12:58:16;96348.94;;;13.76;100.00
49947;BME280;35839;48.662;13.300;2024-03-02T13:00:42;96340.38;;;13.67;100.00
49947;BME280;35839;48.662;13.300;2024-03-02T13:03:07;96347.34;;;13.47;100.00
49947;BME280;35839;48.662;13.300;2024-03-02T13:05:33;96336.84;;;13.54;100.00
49947;BME280;35839;48.662;13.300;2024-03-02T13:07:59;96335.91;;;13.68;100.00
49947;BME280;35839;48.662;13.300;2024-03-02T13:10:28;96328.34;;;13.23;100.00
49947;BME280;35839;48.662;13.300;2024-03-02T13:12:56;96330.09;;;13.79;100.00
49947;BME280;35839;48.662;13.300;2024-03-02T13:15:22;96331.03;;;13.58;100.00
49947;BME280;35839;48.662;13.300;2024-03-02T13:17:47;96322.63;;;13.76;100.00
49947;BME280;35839;48.662;13.300;2024-03-02T13:20:12;96308.84;;;13.74;100.00
49947;BME280;35839;48.662;13.300;2024-03-02T13:22:39;96317.53;;;13.33;100.00
49947;BME280;35839;48.662;13.300;2024-03-02T13:25:05;96317.78;;;13.17;100.00
49947;BME280;35839;48.662;13.300;2024-03-02T13:27:35;96313.22;;;13.25;100.00
49947;BME280;35839;48.662;13.300;2024-03-02T13:30:04;96314.19;;;14.01;100.00
49947;BME280;35839;48.662;13.300;2024-03-02T13:32:31;96311.81;;;14.19;100.00
49947;BME280;35839;48.662;13.300;2024-03-02T13:34:56;96309.91;;;13.86;100.00
49947;BME280;35839;48.662;13.300;2024-03-02T13:37:21;96309.50;;;13.83;100.00
49947;BME280;35839;48.662;13.300;2024-03-02T13:39:47;96312.88;;;14.31;100.00
49947;BME280;35839;48.662;13.300;2024-03-02T13:42:13;96300.09;;;14.28;100.00
49947;BME280;35839;48.662;13.300;2024-03-02T13:44:40;96299.22;;;13.95;100.00
49947;BME280;35839;48.662;13.300;2024-03-02T13:47:06;96283.22;;;14.03;100.00
49947;BME280;35839;48.662;13.300;2024-03-02T13:49:32;96292.84;;;14.44;100.00
49947;BME280;35839;48.662;13.300;2024-03-02T13:52:08;96295.06;;;14.53;100.00
49947;BME280;35839;48.662;13.300;2024-03-02T13:54:42;96294.03;;;14.28;100.00
49947;BME280;35839;48.662;13.300;2024-03-02T13:57:09;96303.53;;;14.16;100.00
49947;BME280;35839;48.662;13.300;2024-03-02T13:59:35;96297.88;;;14.25;100.00
49947;BME280;35839;48.662;13.300;2024-03-02T14:02:01;96298.84;;;14.04;100.00
49947;BME280;35839;48.662;13.300;2024-03-02T14:04:29;96289.56;;;14.35;100.00
49947;BME280;35839;48.662;13.300;2024-03-02T14:06:55;96294.81;;;14.15;100.00
49947;BME280;35839;48.662;13.300;2024-03-02T14:09:21;96289.00;;;14.46;100.00
49947;BME280;35839;48.662;13.300;2024-03-02T14:11:46;96289.41;;;14.50;100.00
49947;BME280;35839;48.662;13.300;2024-03-02T14:14:12;96283.53;;;14.48;100.00
49947;BME280;35839;48.662;13.300;2024-03-02T14:16:37;96274.00;;;14.53;100.00
49947;BME280;35839;48.662;13.300;2024-03-02T14:19:03;96278.69;;;14.85;100.00
49947;BME280;35839;48.662;13.300;2024-03-02T14:21:30;96273.44;;;14.65;100.00
49947;BME280;35839;48.662;13.300;2024-03-02T14:23:55;96278.84;;;14.30;100.00
49947;BME280;35839;48.662;13.300;2024-03-02T14:26:21;96273.78;;;14.48;100.00
49947;BME280;35839;48.662;13.300;2024-03-02T14:28:46;96263.84;;;14.37;100.00
49947;BME280;35839;48.662;13.300;2024-03-02T14:31:12;96265.25;;;14.13;100.00
49947;BME280;35839;48.662;13.300;2024-03-02T14:33:39;96261.81;;;14.26;100.00
49947;BME280;35839;48.662;13.300;2024-03-02T14:36:04;96257.97;;;14.35;100.00
49947;BME280;35839;48.662;13.300;2024-03-02T14:38:56;96249.84;;;14.10;100.00
49947;BME280;35839;48.662;13.300;2024-03-02T14:41:27;96255.53;;;14.13;100.00
49947;BME280;35839;48.662;13.300;2024-03-02T14:43:54;96214.19;;;14.07;100.00
49947;BME280;35839;48.662;13.300;2024-03-02T14:46:19;96249.06;;;14.43;100.00
49947;BME280;35839;48.662;13.300;2024-03-02T14:48:45;96226.75;;;14.12;100.00
49947;BME280;35839;48.662;13.300;2024-03-02T14:51:11;96244.63;;;14.50;100.00
49947;BME280;35839;48.662;13.300;2024-03-02T14:53:37;96238.50;;;14.16;100.00
49947;BME280;35839;48.662;13.300;2024-03-02T14:56:03;96238.09;;;14.06;100.00
49947;BME280;35839;48.662;13.300;2024-03-02T14:58:29;96237.91;;;14.14;100.00
49947;BME280;35839;48.662;13.300;2024-03-02T15:00:54;96238.72;;;14.21;100.00
49947;BME280;35839;48.662;13.300;2024-03-02T15:03:20;96233.88;;;14.51;99.95
49947;BME280;35839;48.662;13.300;2024-03-02T15:05:45;96235.81;;;13.83;100.00
49947;BME280;35839;48.662;13.300;2024-03-02T15:08:11;96236.00;;;13.81;100.00
49947;BME280;35839;48.662;13.300;2024-03-02T15:10:36;96225.53;;;13.95;100.00
49947;BME280;35839;48.662;13.300;2024-03-02T15:13:02;96220.88;;;14.17;100.00
49947;BME280;35839;48.662;13.300;2024-03-02T15:15:28;96219.47;;;14.14;100.00
49947;BME280;35839;48.662;13.300;2024-03-02T15:17:53;96212.97;;;14.10;100.00
49947;BME280;35839;48.662;13.300;2024-03-02T15:20:18;96211.09;;;13.77;100.00
49947;BME280;35839;48.662;13.300;2024-03-02T15:22:46;96208.06;;;13.74;100.00
49947;BME280;35839;48.662;13.300;2024-03-02T15:25:11;96205.22;;;13.62;100.00
49947;BME280;35839;48.662;13.300;2024-03-02T15:27:38;96197.97;;;13.84;100.00
49947;BME280;35839;48.662;13.300;2024-03-02T15:30:04;96198.75;;;13.71;100.00
49947;BME280;35839;48.662;13.300;2024-03-02T15:32:29;96197.97;;;13.90;100.00
49947;BME280;35839;48.662;13.300;2024-03-02T15:34:55;96199.72;;;13.57;100.00
49947;BME280;35839;48.662;13.300;2024-03-02T15:37:20;96201.56;;;13.63;100.00
49947;BME280;35839;48.662;13.300;2024-03-02T15:39:47;96193.09;;;13.74;100.00
49947;BME280;35839;48.662;13.300;2024-03-02T15:42:13;96191.84;;;13.57;100.00
49947;BME280;35839;48.662;13.300;2024-03-02T15:44:38;96193.03;;;13.54;100.00
49947;BME280;35839;48.662;13.300;2024-03-02T15:47:05;96199.84;;;13.35;100.00
49947;BME280;35839;48.662;13.300;2024-03-02T15:49:30;96188.13;;;13.44;100.00
49947;BME280;35839;48.662;13.300;2024-03-02T15:51:57;96195.41;;;13.42;100.00
49947;BME280;35839;48.662;13.300;2024-03-02T15:54:25;96186.38;;;13.17;100.00
49947;BME280;35839;48.662;13.300;2024-03-02T15:56:51;96190.22;;;13.14;100.00
49947;BME280;35839;48.662;13.300;2024-03-02T15:59:17;96185.22;;;13.26;100.00
49947;BME280;35839;48.662;13.300;2024-03-02T16:01:44;96181.69;;;13.40;100.00
49947;BME280;35839;48.662;13.300;2024-03-02T16:04:10;96185.56;;;13.16;100.00
49947;BME280;35839;48.662;13.300;2024-03-02T16:06:35;96175.25;;;12.73;100.00
49947;BME280;35839;48.662;13.300;2024-03-02T16:09:01;96184.84;;;12.88;100.00
49947;BME280;35839;48.662;13.300;2024-03-02T16:11:28;96180.97;;;12.83;100.00
49947;BME280;35839;48.662;13.300;2024-03-02T16:13:54;96186.53;;;12.67;100.00
49947;BME280;35839;48.662;13.300;2024-03-02T16:16:19;96186.56;;;12.74;100.00
49947;BME280;35839;48.662;13.300;2024-03-02T16:18:44;96184.06;;;12.65;100.00
49947;BME280;35839;48.662;13.300;2024-03-02T16:21:10;96188.63;;;12.50;100.00
49947;BME280;35839;48.662;13.300;2024-03-02T16:23:35;96174.88;;;12.48;100.00
49947;BME280;35839;48.662;13.300;2024-03-02T16:26:00;96190.53;;;12.63;100.00
49947;BME280;35839;48.662;13.300;2024-03-02T16:28:26;96182.00;;;12.54;100.00
49947;BME280;35839;48.662;13.300;2024-03-02T16:30:52;96183.69;;;12.12;100.00
49947;BME280;35839;48.662;13.300;2024-03-02T16:33:18;96184.56;;;12.19;100.00
49947;BME280;35839;48.662;13.300;2024-03-02T16:35:43;96181.50;;;12.16;100.00
49947;BME280;35839;48.662;13.300;2024-03-02T16:38:12;96177.81;;;12.10;100.00
49947;BME280;35839;48.662;13.300;2024-03-02T16:40:38;96185.88;;;11.87;100.00
49947;BME280;35839;48.662;13.300;2024-03-02T16:43:04;96181.72;;;11.78;100.00
49947;BME280;35839;48.662;13.300;2024-03-02T16:45:29;96162.25;;;11.66;100.00
49947;BME280;35839;48.662;13.300;2024-03-02T16:47:56;96179.19;;;12.06;100.00
49947;BME280;35839;48.662;13.300;2024-03-02T16:50:22;96188.09;;;12.05;100.00
49947;BME280;35839;48.662;13.300;2024-03-02T16:52:47;96191.63;;;11.97;100.00
49947;BME280;35839;48.662;13.300;2024-03-02T16:55:12;96192.06;;;12.01;100.00
49947;BME280;35839;48.662;13.300;2024-03-02T16:57:38;96190.38;;;11.93;100.00
49947;BME280;35839;48.662;13.300;2024-03-02T17:00:05;96179.47;;;11.90;100.00
49947;BME280;35839;48.662;13.300;2024-03-02T17:02:33;96183.59;;;11.63;100.00
49947;BME280;35839;48.662;13.300;2024-03-02T17:04:58;96192.75;;;11.52;100.00
49947;BME280;35839;48.662;13.300;2024-03-02T17:07:24;96191.56;;;10.88;100.00
49947;BME280;35839;48.662;13.300;2024-03-02T17:09:50;96199.72;;;10.93;100.00
49947;BME280;35839;48.662;13.300;2024-03-02T17:12:15;96200.66;;;10.63;100.00
49947;BME280;35839;48.662;13.300;2024-03-02T17:14:41;96209.66;;;10.30;100.00
49947;BME280;35839;48.662;13.300;2024-03-02T17:17:06;96208.53;;;10.63;100.00
49947;BME280;35839;48.662;13.300;2024-03-02T17:19:31;96208.81;;;10.83;100.00
49947;BME280;35839;48.662;13.300;2024-03-02T17:21:57;96212.09;;;10.85;100.00
49947;BME280;35839;48.662;13.300;2024-03-02T17:24:22;96212.50;;;10.88;100.00
49947;BME280;35839;48.662;13.300;2024-03-02T17:26:48;96215.50;;;10.85;100.00
49947;BME280;35839;48.662;13.300;2024-03-02T17:29:13;96214.50;;;9.96;100.00
49947;BME280;35839;48.662;13.300;2024-03-02T17:31:38;96221.50;;;9.95;100.00
49947;BME280;35839;48.662;13.300;2024-03-02T17:34:04;96217.31;;;9.86;100.00
49947;BME280;35839;48.662;13.300;2024-03-02T17:36:29;96219.94;;;9.63;100.00
49947;BME280;35839;48.662;13.300;2024-03-02T17:38:55;96220.19;;;9.45;100.00
49947;BME280;35839;48.662;13.300;2024-03-02T17:41:21;96213.41;;;9.59;100.00
49947;BME280;35839;48.662;13.300;2024-03-02T17:43:46;96227.78;;;9.63;100.00
49947;BME280;35839;48.662;13.300;2024-03-02T17:46:12;96211.44;;;9.29;100.00
49947;BME280;35839;48.662;13.300;2024-03-02T17:48:37;96228.69;;;9.39;100.00
49947;BME280;35839;48.662;13.300;2024-03-02T17:51:06;96224.69;;;9.59;100.00
49947;BME280;35839;48.662;13.300;2024-03-02T17:53:33;96230.19;;;9.64;100.00
49947;BME280;35839;48.662;13.300;2024-03-02T17:55:58;96233.41;;;9.75;100.00